sensor_id;sensor_type;location;lat;lon;timestamp;temperature;humidity
23143;DHT22;11740;51.168;4.112;2022-09-20T00:01:27;12.20;99.90
23143;DHT22;11740;51.168;4.112;2022-09-20T00:03:59;12.20;99.90
23143;DHT22;11740;51.168;4.112;2022-09-20T00:06:31;12.10;1.00
23143;DHT22;11740;51.168;4.112;2022-09-20T00:08:58;12.10;99.90
23143;DHT22;11740;51.168;4.112;2022-09-20T00:11:32;12.10;99.90
23143;DHT22;11740;51.168;4.112;2022-09-20T00:14:02;12.10;99.90
23143;DHT22;11740;51.168;4.112;2022-09-20T00:16:34;12.00;99.90
23143;DHT22;11740;51.168;4.112;2022-09-20T00:19:04;12.00;83.40
23143;DHT22;11740;51.168;4.112;2022-09-20T00:21:33;12.10;1.00
23143;DHT22;11740;51.168;4.112;2022-09-20T00:24:02;12.00;99.90
23143;DHT22;11740;51.168;4.112;2022-09-20T00:26:29;12.00;1.00
23143;DHT22;11740;51.168;4.112;2022-09-20T00:28:57;12.00;1.00
23143;DHT22;11740;51.168;4.112;2022-09-20T00:31:24;12.00;1.00
23143;DHT22;11740;51.168;4.112;2022-09-20T00:33:55;11.90;1.00
23143;DHT22;11740;51.168;4.112;2022-09-20T00:36:43;11.80;1.00
23143;DHT22;11740;51.168;4.112;2022-09-20T00:39:12;11.60;99.90
23143;DHT22;11740;51.168;4.112;2022-09-20T00:41:40;11.60;99.90
23143;DHT22;11740;51.168;4.112;2022-09-20T00:47:44;11.60;99.90
23143;DHT22;11740;51.168;4.112;2022-09-20T00:50:41;11.60;1.00
23143;DHT22;11740;51.168;4.112;2022-09-20T00:55:48;11.50;99.90
23143;DHT22;11740;51.168;4.112;2022-09-20T00:58:33;11.40;99.90
23143;DHT22;11740;51.168;4.112;2022-09-20T01:01:03;11.40;99.90
23143;DHT22;11740;51.168;4.112;2022-09-20T01:03:33;11.40;13.60
23143;DHT22;11740;51.168;4.112;2022-09-20T01:06:05;11.40;99.90
23143;DHT22;11740;51.168;4.112;2022-09-20T01:08:34;11.30;99.90
23143;DHT22;11740;51.168;4.112;2022-09-20T01:11:02;11.30;99.90
23143;DHT22;11740;51.168;4.112;2022-09-20T01:13:29;11.40;1.00
23143;DHT22;11740;51.168;4.112;2022-09-20T01:15:57;11.30;99.90
23143;DHT22;11740;51.168;4.112;2022-09-20T01:18:28;11.30;99.90
23143;DHT22;11740;51.168;4.112;2022-09-20T01:20:55;11.20;99.90
23143;DHT22;11740;51.168;4.112;2022-09-20T01:23:29;11.20;99.90
23143;DHT22;11740;51.168;4.112;2022-09-20T01:26:12;11.20;1.00
23143;DHT22;11740;51.168;4.112;2022-09-20T01:32:15;11.20;1.00
23143;DHT22;11740;51.168;4.112;2022-09-20T01:34:49;11.10;1.00
23143;DHT22;11740;51.168;4.112;2022-09-20T01:37:26;11.20;99.90
23143;DHT22;11740;51.168;4.112;2022-09-20T01:42:58;11.20;1.00
23143;DHT22;11740;51.168;4.112;2022-09-20T01:45:31;11.20;99.90
23143;DHT22;11740;51.168;4.112;2022-09-20T01:51:05;11.20;1.00
23143;DHT22;11740;51.168;4.112;2022-09-20T01:56:41;11.20;8.90
23143;DHT22;11740;51.168;4.112;2022-09-20T01:59:51;11.20;99.90
23143;DHT22;11740;51.168;4.112;2022-09-20T02:31:10;11.10;99.90
23143;DHT22;11740;51.168;4.112;2022-09-20T02:42:48;11.10;1.00
23143;DHT22;11740;51.168;4.112;2022-09-20T02:45:48;11.00;87.70
23143;DHT22;11740;51.168;4.112;2022-09-20T02:49:07;11.00;99.90
23143;DHT22;11740;51.168;4.112;2022-09-20T02:51:47;11.00;99.90
23143;DHT22;11740;51.168;4.112;2022-09-20T02:54:44;11.00;99.90
23143;DHT22;11740;51.168;4.112;2022-09-20T03:00:18;10.90;99.90
23143;DHT22;11740;51.168;4.112;2022-09-20T03:08:28;10.90;1.00
23143;DHT22;11740;51.168;4.112;2022-09-20T03:22:57;10.70;99.90
23143;DHT22;11740;51.168;4.112;2022-09-20T03:43:26;10.60;1.00
23143;DHT22;11740;51.168;4.112;2022-09-20T04:07:14;10.20;99.90
23143;DHT22;11740;51.168;4.112;2022-09-20T04:19:00;10.10;99.90
23143;DHT22;11740;51.168;4.112;2022-09-20T04:21:57;10.10;72.80
23143;DHT22;11740;51.168;4.112;2022-09-20T04:24:34;10.00;99.90
23143;DHT22;11740;51.168;4.112;2022-09-20T04:27:19;10.10;99.90
23143;DHT22;11740;51.168;4.112;2022-09-20T04:30:01;10.00;99.90
23143;DHT22;11740;51.168;4.112;2022-09-20T04:32:57;10.00;99.90
23143;DHT22;11740;51.168;4.112;2022-09-20T04:38:25;9.90;99.90
23143;DHT22;11740;51.168;4.112;2022-09-20T05:11:30;9.80;99.90
23143;DHT22;11740;51.168;4.112;2022-09-20T05:14:17;9.80;99.90
23143;DHT22;11740;51.168;4.112;2022-09-20T05:29:48;9.70;99.90
23143;DHT22;11740;51.168;4.112;2022-09-20T05:35:59;9.70;1.00
23143;DHT22;11740;51.168;4.112;2022-09-20T05:50:35;9.60;1.00
23143;DHT22;11740;51.168;4.112;2022-09-20T06:00:21;9.60;1.00
23143;DHT22;11740;51.168;4.112;2022-09-20T06:06:05;9.60;99.90
23143;DHT22;11740;51.168;4.112;2022-09-20T06:08:47;9.60;90.90
23143;DHT22;11740;51.168;4.112;2022-09-20T06:17:36;9.60;99.90
23143;DHT22;11740;51.168;4.112;2022-09-20T06:22:58;9.60;1.00
23143;DHT22;11740;51.168;4.112;2022-09-20T06:28:17;9.60;1.00
23143;DHT22;11740;51.168;4.112;2022-09-20T06:30:51;9.60;1.00
23143;DHT22;11740;51.168;4.112;2022-09-20T06:33:21;9.70;1.00
23143;DHT22;11740;51.168;4.112;2022-09-20T06:35:55;9.70;1.00
23143;DHT22;11740;51.168;4.112;2022-09-20T06:38:50;9.70;1.00
23143;DHT22;11740;51.168;4.112;2022-09-20T06:41:58;9.80;1.00
23143;DHT22;11740;51.168;4.112;2022-09-20T06:44:25;9.80;89.80
23143;DHT22;11740;51.168;4.112;2022-09-20T06:46:52;9.80;92.50
23143;DHT22;11740;51.168;4.112;2022-09-20T06:49:20;9.80;89.00
23143;DHT22;11740;51.168;4.112;2022-09-20T06:51:48;9.90;1.00
23143;DHT22;11740;51.168;4.112;2022-09-20T06:54:18;9.90;10.90
23143;DHT22;11740;51.168;4.112;2022-09-20T06:56:46;9.90;55.90
23143;DHT22;11740;51.168;4.112;2022-09-20T06:59:14;9.90;7.90
23143;DHT22;11740;51.168;4.112;2022-09-20T07:01:41;10.10;61.70
23143;DHT22;11740;51.168;4.112;2022-09-20T07:04:09;10.10;99.90
23143;DHT22;11740;51.168;4.112;2022-09-20T07:06:35;10.10;99.90
23143;DHT22;11740;51.168;4.112;2022-09-20T07:09:03;10.10;99.90
23143;DHT22;11740;51.168;4.112;2022-09-20T07:11:31;10.10;50.00
23143;DHT22;11740;51.168;4.112;2022-09-20T07:14:00;10.10;27.50
23143;DHT22;11740;51.168;4.112;2022-09-20T07:16:28;10.20;99.90
23143;DHT22;11740;51.168;4.112;2022-09-20T07:18:55;10.10;99.90
23143;DHT22;11740;51.168;4.112;2022-09-20T07:21:22;10.20;11.00
23143;DHT22;11740;51.168;4.112;2022-09-20T07:23:49;10.20;24.90
23143;DHT22;11740;51.168;4.112;2022-09-20T07:26:25;10.40;99.90
23143;DHT22;11740;51.168;4.112;2022-09-20T07:28:55;10.30;99.90
23143;DHT22;11740;51.168;4.112;2022-09-20T07:31:25;10.30;99.90
23143;DHT22;11740;51.168;4.112;2022-09-20T07:33:53;10.40;99.90
23143;DHT22;11740;51.168;4.112;2022-09-20T07:36:20;10.40;99.90
23143;DHT22;11740;51.168;4.112;2022-09-20T07:38:49;10.40;99.90
23143;DHT22;11740;51.168;4.112;2022-09-20T07:41:18;10.50;99.90
23143;DHT22;11740;51.168;4.112;2022-09-20T07:43:45;10.50;99.90
23143;DHT22;11740;51.168;4.112;2022-09-20T07:46:12;10.50;99.90
23143;DHT22;11740;51.168;4.112;2022-09-20T07:48:40;10.50;99.90
23143;DHT22;11740;51.168;4.112;2022-09-20T07:51:11;10.60;99.90
23143;DHT22;11740;51.168;4.112;2022-09-20T07:53:39;10.60;99.90
23143;DHT22;11740;51.168;4.112;2022-09-20T07:56:10;10.60;99.90
23143;DHT22;11740;51.168;4.112;2022-09-20T07:58:38;10.70;99.90
23143;DHT22;11740;51.168;4.112;2022-09-20T08:01:08;10.70;99.90
23143;DHT22;11740;51.168;4.112;2022-09-20T08:03:36;10.80;99.90
23143;DHT22;11740;51.168;4.112;2022-09-20T08:06:08;10.80;99.90
23143;DHT22;11740;51.168;4.112;2022-09-20T08:08:38;10.80;99.90
23143;DHT22;11740;51.168;4.112;2022-09-20T08:11:10;10.90;99.90
23143;DHT22;11740;51.168;4.112;2022-09-20T08:13:41;10.90;99.90
23143;DHT22;11740;51.168;4.112;2022-09-20T08:16:37;11.10;99.90
23143;DHT22;11740;51.168;4.112;2022-09-20T08:19:05;11.10;99.90
23143;DHT22;11740;51.168;4.112;2022-09-20T08:21:35;11.20;99.90
23143;DHT22;11740;51.168;4.112;2022-09-20T08:24:03;11.30;99.90
23143;DHT22;11740;51.168;4.112;2022-09-20T08:26:31;11.40;99.90
23143;DHT22;11740;51.168;4.112;2022-09-20T08:28:58;11.40;99.90
23143;DHT22;11740;51.168;4.112;2022-09-20T08:31:29;11.60;99.90
23143;DHT22;11740;51.168;4.112;2022-09-20T08:34:00;11.70;99.90
23143;DHT22;11740;51.168;4.112;2022-09-20T08:36:31;11.80;99.90
23143;DHT22;11740;51.168;4.112;2022-09-20T08:39:03;11.90;99.90
23143;DHT22;11740;51.168;4.112;2022-09-20T08:49:48;12.00;1.00
23143;DHT22;11740;51.168;4.112;2022-09-20T08:52:34;12.10;99.90
23143;DHT22;11740;51.168;4.112;2022-09-20T08:55:26;12.40;99.90
23143;DHT22;11740;51.168;4.112;2022-09-20T08:58:02;12.50;99.90
23143;DHT22;11740;51.168;4.112;2022-09-20T09:00:36;12.50;99.90
23143;DHT22;11740;51.168;4.112;2022-09-20T09:03:06;12.50;1.00
23143;DHT22;11740;51.168;4.112;2022-09-20T09:05:46;12.60;83.70
23143;DHT22;11740;51.168;4.112;2022-09-20T09:08:27;12.50;1.00
23143;DHT22;11740;51.168;4.112;2022-09-20T09:11:02;12.60;1.00
23143;DHT22;11740;51.168;4.112;2022-09-20T09:16:32;12.60;1.00
23143;DHT22;11740;51.168;4.112;2022-09-20T09:19:30;12.70;99.90
23143;DHT22;11740;51.168;4.112;2022-09-20T09:22:02;12.80;1.00
23143;DHT22;11740;51.168;4.112;2022-09-20T09:24:30;12.80;99.90
23143;DHT22;11740;51.168;4.112;2022-09-20T09:27:11;12.90;1.00
23143;DHT22;11740;51.168;4.112;2022-09-20T09:29:49;12.90;1.00
23143;DHT22;11740;51.168;4.112;2022-09-20T09:32:26;13.00;1.00
23143;DHT22;11740;51.168;4.112;2022-09-20T09:34:55;13.10;1.00
23143;DHT22;11740;51.168;4.112;2022-09-20T09:37:28;13.10;1.00
23143;DHT22;11740;51.168;4.112;2022-09-20T09:40:15;13.20;1.00
23143;DHT22;11740;51.168;4.112;2022-09-20T09:43:00;13.20;99.90
23143;DHT22;11740;51.168;4.112;2022-09-20T09:45:33;13.20;99.90
23143;DHT22;11740;51.168;4.112;2022-09-20T09:48:22;13.20;99.90
23143;DHT22;11740;51.168;4.112;2022-09-20T09:51:12;13.20;99.90
23143;DHT22;11740;51.168;4.112;2022-09-20T09:53:41;13.30;99.90
23143;DHT22;11740;51.168;4.112;2022-09-20T10:01:41;13.30;1.00
23143;DHT22;11740;51.168;4.112;2022-09-20T10:04:39;13.30;1.00
23143;DHT22;11740;51.168;4.112;2022-09-20T10:07:25;13.40;1.00
23143;DHT22;11740;51.168;4.112;2022-09-20T10:13:13;13.40;99.90
23143;DHT22;11740;51.168;4.112;2022-09-20T10:21:53;13.70;99.90
23143;DHT22;11740;51.168;4.112;2022-09-20T10:24:48;13.90;7.90
23143;DHT22;11740;51.168;4.112;2022-09-20T10:31:11;14.10;1.00
23143;DHT22;11740;51.168;4.112;2022-09-20T10:33:37;14.10;1.00
23143;DHT22;11740;51.168;4.112;2022-09-20T10:39:12;14.30;1.00
23143;DHT22;11740;51.168;4.112;2022-09-20T10:48:57;14.60;99.90
23143;DHT22;11740;51.168;4.112;2022-09-20T10:51:53;14.80;84.20
23143;DHT22;11740;51.168;4.112;2022-09-20T11:00:22;15.10;99.90
23143;DHT22;11740;51.168;4.112;2022-09-20T11:09:21;15.40;99.90
23143;DHT22;11740;51.168;4.112;2022-09-20T11:12:00;15.40;1.00
23143;DHT22;11740;51.168;4.112;2022-09-20T11:14:46;15.40;99.90
23143;DHT22;11740;51.168;4.112;2022-09-20T11:17:23;15.50;99.90
23143;DHT22;11740;51.168;4.112;2022-09-20T11:19:59;15.60;99.90
23143;DHT22;11740;51.168;4.112;2022-09-20T11:22:41;15.60;98.60
23143;DHT22;11740;51.168;4.112;2022-09-20T11:25:19;15.50;99.90
23143;DHT22;11740;51.168;4.112;2022-09-20T11:34:18;15.50;99.90
23143;DHT22;11740;51.168;4.112;2022-09-20T11:36:59;15.50;1.00
23143;DHT22;11740;51.168;4.112;2022-09-20T11:39:50;15.50;99.90
23143;DHT22;11740;51.168;4.112;2022-09-20T11:42:32;15.50;99.90
23143;DHT22;11740;51.168;4.112;2022-09-20T11:45:02;15.50;1.00
23143;DHT22;11740;51.168;4.112;2022-09-20T11:47:43;15.60;99.90
23143;DHT22;11740;51.168;4.112;2022-09-20T11:58:56;15.60;1.00
23143;DHT22;11740;51.168;4.112;2022-09-20T12:01:38;15.70;1.00
23143;DHT22;11740;51.168;4.112;2022-09-20T12:04:23;15.70;99.90
23143;DHT22;11740;51.168;4.112;2022-09-20T12:07:16;15.70;1.00
23143;DHT22;11740;51.168;4.112;2022-09-20T12:09:56;15.80;99.90
23143;DHT22;11740;51.168;4.112;2022-09-20T12:12:30;15.80;41.30
23143;DHT22;11740;51.168;4.112;2022-09-20T12:15:24;15.80;42.60
23143;DHT22;11740;51.168;4.112;2022-09-20T12:28:44;16.00;99.90
23143;DHT22;11740;51.168;4.112;2022-09-20T12:33:55;16.00;1.00
23143;DHT22;11740;51.168;4.112;2022-09-20T12:36:31;16.10;1.00
23143;DHT22;11740;51.168;4.112;2022-09-20T12:39:14;16.10;1.00
23143;DHT22;11740;51.168;4.112;2022-09-20T12:58:03;16.30;99.90
23143;DHT22;11740;51.168;4.112;2022-09-20T13:03:37;16.50;99.90
23143;DHT22;11740;51.168;4.112;2022-09-20T13:06:20;16.50;99.90
23143;DHT22;11740;51.168;4.112;2022-09-20T13:14:23;16.60;99.90
23143;DHT22;11740;51.168;4.112;2022-09-20T13:17:23;16.60;99.90
23143;DHT22;11740;51.168;4.112;2022-09-20T13:19:54;16.70;1.00
23143;DHT22;11740;51.168;4.112;2022-09-20T13:22:25;16.80;84.00
23143;DHT22;11740;51.168;4.112;2022-09-20T13:24:58;16.80;1.00
23143;DHT22;11740;51.168;4.112;2022-09-20T13:27:31;16.90;1.00
23143;DHT22;11740;51.168;4.112;2022-09-20T13:30:20;17.00;99.90
23143;DHT22;11740;51.168;4.112;2022-09-20T13:32:50;17.00;99.90
23143;DHT22;11740;51.168;4.112;2022-09-20T13:35:21;17.10;1.00
23143;DHT22;11740;51.168;4.112;2022-09-20T13:40:46;17.20;99.90
23143;DHT22;11740;51.168;4.112;2022-09-20T13:43:26;17.30;99.90
23143;DHT22;11740;51.168;4.112;2022-09-20T13:45:57;17.50;99.90
23143;DHT22;11740;51.168;4.112;2022-09-20T13:48:28;17.50;60.50
23143;DHT22;11740;51.168;4.112;2022-09-20T13:50:56;17.60;1.00
23143;DHT22;11740;51.168;4.112;2022-09-20T13:53:25;17.50;1.00
23143;DHT22;11740;51.168;4.112;2022-09-20T13:56:23;17.50;1.00
23143;DHT22;11740;51.168;4.112;2022-09-20T13:58:53;17.50;99.90
23143;DHT22;11740;51.168;4.112;2022-09-20T14:01:32;17.40;1.00
23143;DHT22;11740;51.168;4.112;2022-09-20T14:04:16;17.50;1.00
23143;DHT22;11740;51.168;4.112;2022-09-20T14:06:47;17.40;1.00
23143;DHT22;11740;51.168;4.112;2022-09-20T14:09:26;17.40;1.00
23143;DHT22;11740;51.168;4.112;2022-09-20T14:11:57;17.60;99.90
23143;DHT22;11740;51.168;4.112;2022-09-20T14:14:25;17.80;99.90
23143;DHT22;11740;51.168;4.112;2022-09-20T14:16:54;17.80;99.90
23143;DHT22;11740;51.168;4.112;2022-09-20T14:19:29;17.90;1.00
23143;DHT22;11740;51.168;4.112;2022-09-20T14:22:02;17.80;99.90
23143;DHT22;11740;51.168;4.112;2022-09-20T14:24:35;17.90;99.90
23143;DHT22;11740;51.168;4.112;2022-09-20T14:27:20;17.90;99.90
23143;DHT22;11740;51.168;4.112;2022-09-20T14:29:52;17.90;99.90
23143;DHT22;11740;51.168;4.112;2022-09-20T14:34:59;17.80;99.90
23143;DHT22;11740;51.168;4.112;2022-09-20T14:37:43;17.80;99.90
23143;DHT22;11740;51.168;4.112;2022-09-20T14:40:39;17.90;99.90
23143;DHT22;11740;51.168;4.112;2022-09-20T14:46:03;17.80;99.90
23143;DHT22;11740;51.168;4.112;2022-09-20T14:48:35;17.80;1.00
23143;DHT22;11740;51.168;4.112;2022-09-20T14:59:26;18.20;1.00
23143;DHT22;11740;51.168;4.112;2022-09-20T15:02:03;18.20;1.00
23143;DHT22;11740;51.168;4.112;2022-09-20T15:04:39;18.20;99.90
23143;DHT22;11740;51.168;4.112;2022-09-20T15:07:09;18.30;1.00
23143;DHT22;11740;51.168;4.112;2022-09-20T15:09:39;18.40;99.90
23143;DHT22;11740;51.168;4.112;2022-09-20T15:12:11;18.40;1.00
23143;DHT22;11740;51.168;4.112;2022-09-20T15:14:39;18.50;99.90
23143;DHT22;11740;51.168;4.112;2022-09-20T15:17:17;18.60;1.00
23143;DHT22;11740;51.168;4.112;2022-09-20T15:19:46;18.60;1.00
23143;DHT22;11740;51.168;4.112;2022-09-20T15:22:15;18.80;99.90
23143;DHT22;11740;51.168;4.112;2022-09-20T15:24:42;18.90;1.00
23143;DHT22;11740;51.168;4.112;2022-09-20T15:27:11;19.00;99.90
23143;DHT22;11740;51.168;4.112;2022-09-20T15:29:38;19.10;1.00
23143;DHT22;11740;51.168;4.112;2022-09-20T15:32:09;19.10;99.90
23143;DHT22;11740;51.168;4.112;2022-09-20T15:34:36;19.10;1.00
23143;DHT22;11740;51.168;4.112;2022-09-20T15:37:03;19.20;1.00
23143;DHT22;11740;51.168;4.112;2022-09-20T15:39:30;19.30;1.00
23143;DHT22;11740;51.168;4.112;2022-09-20T15:41:57;19.40;1.00
23143;DHT22;11740;51.168;4.112;2022-09-20T15:44:24;19.40;99.90
23143;DHT22;11740;51.168;4.112;2022-09-20T15:46:51;19.50;1.00
23143;DHT22;11740;51.168;4.112;2022-09-20T15:49:18;19.50;1.00
23143;DHT22;11740;51.168;4.112;2022-09-20T15:51:47;19.50;99.90
23143;DHT22;11740;51.168;4.112;2022-09-20T15:54:14;19.60;99.90
23143;DHT22;11740;51.168;4.112;2022-09-20T15:56:41;19.60;99.90
23143;DHT22;11740;51.168;4.112;2022-09-20T15:59:09;19.70;1.00
23143;DHT22;11740;51.168;4.112;2022-09-20T16:01:39;19.70;99.90
23143;DHT22;11740;51.168;4.112;2022-09-20T16:04:09;19.70;1.00
23143;DHT22;11740;51.168;4.112;2022-09-20T16:06:46;19.70;99.90
23143;DHT22;11740;51.168;4.112;2022-09-20T16:09:15;19.70;84.70
23143;DHT22;11740;51.168;4.112;2022-09-20T16:11:43;19.70;1.00
23143;DHT22;11740;51.168;4.112;2022-09-20T16:14:11;19.70;99.90
23143;DHT22;11740;51.168;4.112;2022-09-20T16:16:38;19.80;99.90
23143;DHT22;11740;51.168;4.112;2022-09-20T16:19:08;19.80;99.90
23143;DHT22;11740;51.168;4.112;2022-09-20T16:21:53;19.80;29.00
23143;DHT22;11740;51.168;4.112;2022-09-20T16:24:27;19.90;99.90
23143;DHT22;11740;51.168;4.112;2022-09-20T16:26:56;19.90;1.00
23143;DHT22;11740;51.168;4.112;2022-09-20T16:29:24;19.80;99.90
23143;DHT22;11740;51.168;4.112;2022-09-20T16:31:53;19.80;1.00
23143;DHT22;11740;51.168;4.112;2022-09-20T16:34:31;19.90;1.00
23143;DHT22;11740;51.168;4.112;2022-09-20T16:37:00;19.80;1.00
23143;DHT22;11740;51.168;4.112;2022-09-20T16:39:31;19.80;1.00
23143;DHT22;11740;51.168;4.112;2022-09-20T16:42:00;19.80;1.00
23143;DHT22;11740;51.168;4.112;2022-09-20T16:44:35;19.80;99.90
23143;DHT22;11740;51.168;4.112;2022-09-20T16:47:04;19.80;1.00
23143;DHT22;11740;51.168;4.112;2022-09-20T16:49:36;19.80;1.00
23143;DHT22;11740;51.168;4.112;2022-09-20T16:52:05;19.80;1.00
23143;DHT22;11740;51.168;4.112;2022-09-20T16:54:35;19.70;10.60
23143;DHT22;11740;51.168;4.112;2022-09-20T16:57:02;19.70;1.00
23143;DHT22;11740;51.168;4.112;2022-09-20T16:59:30;19.70;1.00
23143;DHT22;11740;51.168;4.112;2022-09-20T17:01:57;19.60;99.90
23143;DHT22;11740;51.168;4.112;2022-09-20T17:04:24;19.60;99.90
23143;DHT22;11740;51.168;4.112;2022-09-20T17:06:51;19.60;17.60
23143;DHT22;11740;51.168;4.112;2022-09-20T17:09:18;19.60;26.70
23143;DHT22;11740;51.168;4.112;2022-09-20T17:11:47;19.50;99.90
23143;DHT22;11740;51.168;4.112;2022-09-20T17:14:17;19.50;1.00
23143;DHT22;11740;51.168;4.112;2022-09-20T17:16:46;19.50;1.00
23143;DHT22;11740;51.168;4.112;2022-09-20T17:19:18;19.40;40.10
23143;DHT22;11740;51.168;4.112;2022-09-20T17:21:48;19.40;1.00
23143;DHT22;11740;51.168;4.112;2022-09-20T17:24:18;19.40;1.00
23143;DHT22;11740;51.168;4.112;2022-09-20T17:26:46;19.30;1.00
23143;DHT22;11740;51.168;4.112;2022-09-20T17:29:17;19.30;1.00
23143;DHT22;11740;51.168;4.112;2022-09-20T17:31:47;19.20;99.90
23143;DHT22;11740;51.168;4.112;2022-09-20T17:34:21;19.20;99.90
23143;DHT22;11740;51.168;4.112;2022-09-20T17:36:48;19.10;1.00
23143;DHT22;11740;51.168;4.112;2022-09-20T17:39:16;19.00;1.00
23143;DHT22;11740;51.168;4.112;2022-09-20T17:41:45;18.90;99.90
23143;DHT22;11740;51.168;4.112;2022-09-20T17:44:14;18.90;1.00
23143;DHT22;11740;51.168;4.112;2022-09-20T17:46:45;18.90;1.00
23143;DHT22;11740;51.168;4.112;2022-09-20T17:49:20;18.80;99.90
23143;DHT22;11740;51.168;4.112;2022-09-20T17:51:49;18.80;99.90
23143;DHT22;11740;51.168;4.112;2022-09-20T17:54:18;18.80;99.90
23143;DHT22;11740;51.168;4.112;2022-09-20T17:56:47;18.70;99.90
23143;DHT22;11740;51.168;4.112;2022-09-20T17:59:16;18.70;99.90
23143;DHT22;11740;51.168;4.112;2022-09-20T18:01:46;18.70;1.00
23143;DHT22;11740;51.168;4.112;2022-09-20T18:04:14;18.70;1.00
23143;DHT22;11740;51.168;4.112;2022-09-20T18:06:47;18.60;1.00
23143;DHT22;11740;51.168;4.112;2022-09-20T18:09:17;18.50;99.90
23143;DHT22;11740;51.168;4.112;2022-09-20T18:11:50;18.50;1.00
23143;DHT22;11740;51.168;4.112;2022-09-20T18:14:23;18.40;1.00
23143;DHT22;11740;51.168;4.112;2022-09-20T18:16:54;18.40;1.00
23143;DHT22;11740;51.168;4.112;2022-09-20T18:19:23;18.30;1.00
23143;DHT22;11740;51.168;4.112;2022-09-20T18:21:58;18.30;1.00
23143;DHT22;11740;51.168;4.112;2022-09-20T18:24:25;18.20;99.90
23143;DHT22;11740;51.168;4.112;2022-09-20T18:26:52;18.10;99.90
23143;DHT22;11740;51.168;4.112;2022-09-20T18:29:19;17.90;99.90
23143;DHT22;11740;51.168;4.112;2022-09-20T18:31:50;17.60;99.90
23143;DHT22;11740;51.168;4.112;2022-09-20T18:34:22;17.40;99.90
23143;DHT22;11740;51.168;4.112;2022-09-20T18:36:53;17.20;99.90
23143;DHT22;11740;51.168;4.112;2022-09-20T18:39:22;17.00;1.00
23143;DHT22;11740;51.168;4.112;2022-09-20T18:41:50;16.80;99.90
23143;DHT22;11740;51.168;4.112;2022-09-20T18:44:19;16.80;99.90
23143;DHT22;11740;51.168;4.112;2022-09-20T18:46:47;16.70;1.00
23143;DHT22;11740;51.168;4.112;2022-09-20T18:49:15;16.70;1.00
23143;DHT22;11740;51.168;4.112;2022-09-20T18:51:43;16.60;99.90
23143;DHT22;11740;51.168;4.112;2022-09-20T18:54:11;16.60;99.90
23143;DHT22;11740;51.168;4.112;2022-09-20T18:56:40;16.60;99.90
23143;DHT22;11740;51.168;4.112;2022-09-20T18:59:21;16.50;99.90
23143;DHT22;11740;51.168;4.112;2022-09-20T19:10:46;16.30;99.90
23143;DHT22;11740;51.168;4.112;2022-09-20T19:13:37;16.30;1.00
23143;DHT22;11740;51.168;4.112;2022-09-20T19:16:29;16.20;1.00
23143;DHT22;11740;51.168;4.112;2022-09-20T19:19:31;16.10;1.00
23143;DHT22;11740;51.168;4.112;2022-09-20T19:22:21;16.10;1.00
23143;DHT22;11740;51.168;4.112;2022-09-20T19:27:51;16.00;1.00
23143;DHT22;11740;51.168;4.112;2022-09-20T19:30:19;15.90;1.00
23143;DHT22;11740;51.168;4.112;2022-09-20T19:32:46;15.90;1.00
23143;DHT22;11740;51.168;4.112;2022-09-20T19:35:21;15.90;1.00
23143;DHT22;11740;51.168;4.112;2022-09-20T19:38:16;15.80;1.00
23143;DHT22;11740;51.168;4.112;2022-09-20T19:52:53;15.40;71.10
23143;DHT22;11740;51.168;4.112;2022-09-20T19:55:24;15.30;99.90
23143;DHT22;11740;51.168;4.112;2022-09-20T19:57:51;15.30;99.90
23143;DHT22;11740;51.168;4.112;2022-09-20T20:00:19;15.10;99.90
23143;DHT22;11740;51.168;4.112;2022-09-20T20:02:47;15.10;99.90
23143;DHT22;11740;51.168;4.112;2022-09-20T20:05:16;15.00;99.90
23143;DHT22;11740;51.168;4.112;2022-09-20T20:07:50;14.90;99.90
23143;DHT22;11740;51.168;4.112;2022-09-20T20:13:45;14.70;1.00
23143;DHT22;11740;51.168;4.112;2022-09-20T20:28:14;14.10;99.90
23143;DHT22;11740;51.168;4.112;2022-09-20T20:30:41;14.10;99.90
23143;DHT22;11740;51.168;4.112;2022-09-20T20:33:14;14.00;1.00
23143;DHT22;11740;51.168;4.112;2022-09-20T20:35:41;13.80;1.00
23143;DHT22;11740;51.168;4.112;2022-09-20T20:38:08;13.70;99.90
23143;DHT22;11740;51.168;4.112;2022-09-20T20:40:37;13.70;99.90
23143;DHT22;11740;51.168;4.112;2022-09-20T20:43:06;13.80;15.50
23143;DHT22;11740;51.168;4.112;2022-09-20T20:45:34;13.70;1.00
23143;DHT22;11740;51.168;4.112;2022-09-20T20:48:01;13.70;99.90
23143;DHT22;11740;51.168;4.112;2022-09-20T20:50:28;13.70;99.90
23143;DHT22;11740;51.168;4.112;2022-09-20T20:52:55;13.70;49.00
23143;DHT22;11740;51.168;4.112;2022-09-20T20:55:23;13.60;99.90
23143;DHT22;11740;51.168;4.112;2022-09-20T20:57:54;13.60;99.90
23143;DHT22;11740;51.168;4.112;2022-09-20T21:00:25;13.50;99.90
23143;DHT22;11740;51.168;4.112;2022-09-20T21:02:59;13.50;99.90
23143;DHT22;11740;51.168;4.112;2022-09-20T21:05:27;13.50;99.90
23143;DHT22;11740;51.168;4.112;2022-09-20T21:07:54;13.50;99.90
23143;DHT22;11740;51.168;4.112;2022-09-20T21:10:23;13.40;99.90
23143;DHT22;11740;51.168;4.112;2022-09-20T21:12:53;13.30;99.90
23143;DHT22;11740;51.168;4.112;2022-09-20T21:15:20;13.40;90.10
23143;DHT22;11740;51.168;4.112;2022-09-20T21:17:51;13.40;1.00
23143;DHT22;11740;51.168;4.112;2022-09-20T21:20:19;13.40;1.00
23143;DHT22;11740;51.168;4.112;2022-09-20T21:22:47;13.30;1.00
23143;DHT22;11740;51.168;4.112;2022-09-20T21:25:14;13.30;1.00
23143;DHT22;11740;51.168;4.112;2022-09-20T21:27:41;13.30;1.00
23143;DHT22;11740;51.168;4.112;2022-09-20T21:30:08;13.10;23.80
23143;DHT22;11740;51.168;4.112;2022-09-20T21:32:35;13.10;81.80
23143;DHT22;11740;51.168;4.112;2022-09-20T21:35:03;13.10;13.50
23143;DHT22;11740;51.168;4.112;2022-09-20T21:37:30;13.00;1.00
23143;DHT22;11740;51.168;4.112;2022-09-20T21:39:57;13.00;1.00
23143;DHT22;11740;51.168;4.112;2022-09-20T21:42:24;13.00;1.00
23143;DHT22;11740;51.168;4.112;2022-09-20T21:44:53;13.00;1.00
23143;DHT22;11740;51.168;4.112;2022-09-20T21:47:20;12.90;1.00
23143;DHT22;11740;51.168;4.112;2022-09-20T21:49:47;12.80;77.10
23143;DHT22;11740;51.168;4.112;2022-09-20T21:52:14;12.80;1.00
23143;DHT22;11740;51.168;4.112;2022-09-20T21:54:41;12.70;1.00
23143;DHT22;11740;51.168;4.112;2022-09-20T21:57:12;12.70;1.00
23143;DHT22;11740;51.168;4.112;2022-09-20T21:59:39;12.70;1.00
23143;DHT22;11740;51.168;4.112;2022-09-20T22:02:06;12.70;1.00
23143;DHT22;11740;51.168;4.112;2022-09-20T22:04:33;12.60;1.00
23143;DHT22;11740;51.168;4.112;2022-09-20T22:07:01;12.50;46.00
23143;DHT22;11740;51.168;4.112;2022-09-20T22:09:29;12.40;99.90
23143;DHT22;11740;51.168;4.112;2022-09-20T22:11:56;12.30;99.90
23143;DHT22;11740;51.168;4.112;2022-09-20T22:14:23;12.10;99.90
23143;DHT22;11740;51.168;4.112;2022-09-20T22:16:50;12.00;99.90
23143;DHT22;11740;51.168;4.112;2022-09-20T22:19:18;11.90;99.90
23143;DHT22;11740;51.168;4.112;2022-09-20T22:21:47;12.00;99.90
23143;DHT22;11740;51.168;4.112;2022-09-20T22:24:16;12.00;99.90
23143;DHT22;11740;51.168;4.112;2022-09-20T22:26:49;12.00;75.00